Abbott, PA

5:02 PM EDT on September 01, 2014 (GMT -0400)
Germania | Change Station
CLOSE
Current Station
Personal Weather Station
Location: Galeton, PA
Elevation: 2240 ft
Nearby Weather Stations

Elev 2240 ft 41.66 °N, 77.67 °W | Updated 3 seconds ago

Mostly Cloudy
Mostly Cloudy
75.2 °F
Feels Like 75 °F
N
4.0
Wind Variable Wind from SSW
Gusts 8.0 mph

Today
High -- | Low -- °F
--% Chance of Precip.
Yesterday
High -- | Low -- °F
Precip. -- in
6:36 AM 7:43 PM
Waxing Crescent, 44% visible
Pressure 29.95 in
Visibility 10.0 miles
Clouds Few 6000 ft
Heat Index 75 °F
Dew Point 70 °F
Humidity 84%
Rainfall 0.18 in
Snow Depth Not available.
UV 3 out of 12
Pollen 9.30 out of 12
Air Quality Not available.
Flu Activity Not available.
METAR KELZ 012056Z AUTO 21006G15KT 10SM FEW060 26/19 A2999 RMK AO2 SLP142 T02560189 56014

More Conditions Fewer Conditions

Pressure 29.95 in
Visibility 10.0 miles
Clouds Few 6000 ft
Heat Index 75 °F
Dew Point 70 °F
Humidity 84%
Rainfall 0.18 in
Snow Depth Not available.
UV 3 out of 12
Pollen 9.30 out of 12
Air Quality Not available.
Flu Activity Not available.
METAR KELZ 012056Z AUTO 21006G15KT 10SM FEW060 26/19 A2999 RMK AO2 SLP142 T02560189 56014

More Conditions Fewer Conditions

10-Day Weather Forecast

Almanac

Astronomy

Sep. 01, 2014 Rise Set
Actual Time 6:36 AM EDT 7:43 PM EDT
Civil Twilight 6:07 AM EDT 8:12 PM EDT
Nautical Twilight 5:33 AM EDT 8:46 PM EDT
Astronomical Twilight 4:57 AM EDT 9:22 PM EDT
Moon 1:25 PM EDT 11:37 PM EDT
Length of Visible Light 14h 04m
Length of Day
13h 07m
Tomorrow will be 2m 40s shorter.
Waxing Crescent, 44% of the Moon is Illuminated
Today
Waxing Crescent
Sep 2
First Quarter
Sep 8
Full
Sep 15
Last Quarter
Sep 24
New

Today's Extremes

State Highs State Lows

Community

WunderPhotos

Upload Photos

1,749,407 photos uploaded!

WunderBlogs® & News

Nearby

Snow Depth

Station Depth Elevation
No new snow has been reported.

Earthquake Activity

City Distance Mag. Time & Date
No recent earthquake activity has been reported nearby.
Minimum magnitude displayed is 2.5.

Coastal Water Temperatures

Place Temperature
No Stations Reporting

Nearby Weather Stations